sensor_id;sensor_type;location;lat;lon;timestamp;pressure;altitude;pressure_sealevel;temperature;humidity
65997;BME280;52765;52.258;21.052;2024-03-07T00:03:32;101639.44;;;4.15;62.48
65997;BME280;52765;52.258;21.052;2024-03-07T00:07:32;101644.84;;;4.13;62.21
65997;BME280;52765;52.258;21.052;2024-03-07T00:11:33;101638.91;;;4.08;62.55
65997;BME280;52765;52.258;21.052;2024-03-07T00:15:34;101648.94;;;4.03;63.00
65997;BME280;52765;52.258;21.052;2024-03-07T00:19:35;101639.63;;;3.94;63.75
65997;BME280;52765;52.258;21.052;2024-03-07T00:23:37;101641.53;;;3.92;63.32
65997;BME280;52765;52.258;21.052;2024-03-07T00:27:38;101647.88;;;3.89;63.79
65997;BME280;52765;52.258;21.052;2024-03-07T00:31:39;101640.53;;;3.77;63.67
65997;BME280;52765;52.258;21.052;2024-03-07T00:35:39;101646.63;;;3.63;64.84
65997;BME280;52765;52.258;21.052;2024-03-07T00:39:40;101646.06;;;3.57;64.24
65997;BME280;52765;52.258;21.052;2024-03-07T00:43:41;101643.19;;;3.44;65.13
65997;BME280;52765;52.258;21.052;2024-03-07T00:47:42;101634.25;;;3.27;66.05
65997;BME280;52765;52.258;21.052;2024-03-07T00:51:42;101632.78;;;3.22;67.28
65997;BME280;52765;52.258;21.052;2024-03-07T00:55:44;101641.97;;;3.14;67.97
65997;BME280;52765;52.258;21.052;2024-03-07T00:59:45;101644.16;;;3.06;68.64
65997;BME280;52765;52.258;21.052;2024-03-07T01:03:46;101639.25;;;2.99;69.89
65997;BME280;52765;52.258;21.052;2024-03-07T01:07:46;101643.22;;;2.90;69.56
65997;BME280;52765;52.258;21.052;2024-03-07T01:11:47;101642.81;;;2.80;71.27
65997;BME280;52765;52.258;21.052;2024-03-07T01:15:48;101646.34;;;2.81;71.28
65997;BME280;52765;52.258;21.052;2024-03-07T01:19:49;101650.81;;;2.80;71.73
65997;BME280;52765;52.258;21.052;2024-03-07T01:23:52;101643.75;;;2.79;71.82
65997;BME280;52765;52.258;21.052;2024-03-07T01:27:53;101650.47;;;2.69;72.08
65997;BME280;52765;52.258;21.052;2024-03-07T01:31:53;101655.06;;;2.65;72.89
65997;BME280;52765;52.258;21.052;2024-03-07T01:35:54;101655.13;;;2.64;73.45
65997;BME280;52765;52.258;21.052;2024-03-07T01:39:54;101650.81;;;2.61;73.73
65997;BME280;52765;52.258;21.052;2024-03-07T01:43:55;101647.97;;;2.47;73.08
65997;BME280;52765;52.258;21.052;2024-03-07T01:47:55;101648.03;;;2.45;73.57
65997;BME280;52765;52.258;21.052;2024-03-07T01:51:56;101656.16;;;2.42;75.02
65997;BME280;52765;52.258;21.052;2024-03-07T01:55:58;101657.75;;;2.27;74.32
65997;BME280;52765;52.258;21.052;2024-03-07T02:00:00;101648.47;;;2.17;76.83
65997;BME280;52765;52.258;21.052;2024-03-07T02:04:04;101652.13;;;2.14;77.19
65997;BME280;52765;52.258;21.052;2024-03-07T02:08:04;101648.28;;;2.01;78.36
65997;BME280;52765;52.258;21.052;2024-03-07T02:12:05;101652.69;;;2.02;77.55
65997;BME280;52765;52.258;21.052;2024-03-07T02:16:06;101651.97;;;1.98;78.74
65997;BME280;52765;52.258;21.052;2024-03-07T02:20:07;101644.59;;;1.84;80.01
65997;BME280;52765;52.258;21.052;2024-03-07T02:24:11;101641.66;;;1.72;80.17
65997;BME280;52765;52.258;21.052;2024-03-07T02:28:11;101642.72;;;1.67;81.32
65997;BME280;52765;52.258;21.052;2024-03-07T02:32:11;101640.78;;;1.51;82.19
65997;BME280;52765;52.258;21.052;2024-03-07T02:36:12;101644.00;;;1.38;82.73
65997;BME280;52765;52.258;21.052;2024-03-07T02:40:14;101647.88;;;1.29;83.32
65997;BME280;52765;52.258;21.052;2024-03-07T02:44:14;101652.16;;;1.11;84.78
65997;BME280;52765;52.258;21.052;2024-03-07T02:48:15;101657.63;;;1.08;84.63
65997;BME280;52765;52.258;21.052;2024-03-07T02:52:15;101658.72;;;1.03;86.11
65997;BME280;52765;52.258;21.052;2024-03-07T02:56:16;101653.88;;;0.92;85.60
65997;BME280;52765;52.258;21.052;2024-03-07T03:00:16;101655.09;;;0.83;87.48
65997;BME280;52765;52.258;21.052;2024-03-07T03:04:19;101655.25;;;0.80;87.39
65997;BME280;52765;52.258;21.052;2024-03-07T03:08:20;101658.03;;;0.77;88.60
65997;BME280;52765;52.258;21.052;2024-03-07T03:12:20;101659.88;;;0.75;87.97
65997;BME280;52765;52.258;21.052;2024-03-07T03:16:22;101658.44;;;0.66;88.58
65997;BME280;52765;52.258;21.052;2024-03-07T03:20:23;101657.63;;;0.64;88.00
65997;BME280;52765;52.258;21.052;2024-03-07T03:24:31;101653.13;;;0.44;89.36
65997;BME280;52765;52.258;21.052;2024-03-07T03:28:32;101664.63;;;0.43;89.45
65997;BME280;52765;52.258;21.052;2024-03-07T03:32:32;101670.94;;;0.41;90.63
65997;BME280;52765;52.258;21.052;2024-03-07T03:36:33;101663.44;;;0.28;90.57
65997;BME280;52765;52.258;21.052;2024-03-07T03:40:34;101666.28;;;0.24;91.46
65997;BME280;52765;52.258;21.052;2024-03-07T03:44:34;101667.25;;;0.21;91.30
65997;BME280;52765;52.258;21.052;2024-03-07T03:48:35;101670.13;;;0.15;90.88
65997;BME280;52765;52.258;21.052;2024-03-07T03:52:35;101678.03;;;0.16;90.75
65997;BME280;52765;52.258;21.052;2024-03-07T03:56:36;101672.88;;;0.13;92.15
65997;BME280;52765;52.258;21.052;2024-03-07T04:00:39;101671.34;;;0.06;92.77
65997;BME280;52765;52.258;21.052;2024-03-07T04:04:40;101676.81;;;0.02;92.88
65997;BME280;52765;52.258;21.052;2024-03-07T04:08:41;101674.28;;;-0.02;93.91
65997;BME280;52765;52.258;21.052;2024-03-07T04:12:41;101673.47;;;-0.04;93.95
65997;BME280;52765;52.258;21.052;2024-03-07T04:16:42;101657.19;;;-0.16;94.03
65997;BME280;52765;52.258;21.052;2024-03-07T04:20:42;101667.63;;;-0.13;94.55
65997;BME280;52765;52.258;21.052;2024-03-07T04:24:45;101677.72;;;-0.23;94.84
65997;BME280;52765;52.258;21.052;2024-03-07T04:28:46;101677.81;;;-0.26;95.04
65997;BME280;52765;52.258;21.052;2024-03-07T04:32:46;101669.06;;;-0.28;95.64
65997;BME280;52765;52.258;21.052;2024-03-07T04:36:47;101670.84;;;-0.29;95.33
65997;BME280;52765;52.258;21.052;2024-03-07T04:40:47;101687.88;;;-0.36;95.72
65997;BME280;52765;52.258;21.052;2024-03-07T04:44:48;101675.50;;;-0.35;95.55
65997;BME280;52765;52.258;21.052;2024-03-07T04:48:48;101675.53;;;-0.37;95.46
65997;BME280;52765;52.258;21.052;2024-03-07T04:52:49;101679.13;;;-0.38;96.16
65997;BME280;52765;52.258;21.052;2024-03-07T04:56:51;101679.94;;;-0.36;95.57
65997;BME280;52765;52.258;21.052;2024-03-07T05:00:51;101677.50;;;-0.42;96.66
65997;BME280;52765;52.258;21.052;2024-03-07T05:04:52;101688.13;;;-0.44;96.75
65997;BME280;52765;52.258;21.052;2024-03-07T05:08:52;101689.13;;;-0.46;96.86
65997;BME280;52765;52.258;21.052;2024-03-07T05:12:53;101687.38;;;-0.47;96.46
65997;BME280;52765;52.258;21.052;2024-03-07T05:16:53;101686.47;;;-0.46;96.23
65997;BME280;52765;52.258;21.052;2024-03-07T05:21:06;101694.31;;;-0.43;97.08
65997;BME280;52765;52.258;21.052;2024-03-07T05:25:26;101700.63;;;-0.47;96.45
65997;BME280;52765;52.258;21.052;2024-03-07T05:29:26;101705.91;;;-0.47;97.03
65997;BME280;52765;52.258;21.052;2024-03-07T05:33:27;101709.22;;;-0.41;97.25
65997;BME280;52765;52.258;21.052;2024-03-07T05:37:28;101697.81;;;-0.43;95.75
65997;BME280;52765;52.258;21.052;2024-03-07T05:41:28;101712.63;;;-0.37;95.33
65997;BME280;52765;52.258;21.052;2024-03-07T05:45:29;101716.00;;;-0.33;95.68
65997;BME280;52765;52.258;21.052;2024-03-07T05:49:30;101716.63;;;-0.25;96.08
65997;BME280;52765;52.258;21.052;2024-03-07T05:53:31;101717.41;;;-0.22;95.05
65997;BME280;52765;52.258;21.052;2024-03-07T05:57:32;101713.91;;;-0.24;94.65
65997;BME280;52765;52.258;21.052;2024-03-07T06:01:38;101720.59;;;-0.13;95.01
65997;BME280;52765;52.258;21.052;2024-03-07T06:05:39;101713.09;;;-0.01;94.75
65997;BME280;52765;52.258;21.052;2024-03-07T06:09:43;101716.56;;;0.72;92.84
65997;BME280;52765;52.258;21.052;2024-03-07T06:13:43;101706.91;;;1.36;87.19
65997;BME280;52765;52.258;21.052;2024-03-07T06:17:44;101716.38;;;1.21;84.84
65997;BME280;52765;52.258;21.052;2024-03-07T06:21:46;101715.75;;;0.92;87.45
65997;BME280;52765;52.258;21.052;2024-03-07T06:25:47;101723.28;;;0.81;87.67
65997;BME280;52765;52.258;21.052;2024-03-07T06:29:47;101733.44;;;0.70;88.35
65997;BME280;52765;52.258;21.052;2024-03-07T06:33:50;101729.13;;;0.67;88.94
65997;BME280;52765;52.258;21.052;2024-03-07T06:37:51;101729.13;;;0.67;88.28
65997;BME280;52765;52.258;21.052;2024-03-07T06:41:52;101732.53;;;0.71;87.52
65997;BME280;52765;52.258;21.052;2024-03-07T06:45:52;101718.09;;;0.78;86.80
65997;BME280;52765;52.258;21.052;2024-03-07T06:49:53;101724.91;;;0.85;86.82
65997;BME280;52765;52.258;21.052;2024-03-07T06:53:53;101724.63;;;0.91;86.59
65997;BME280;52765;52.258;21.052;2024-03-07T06:57:54;101724.84;;;1.09;85.14
65997;BME280;52765;52.258;21.052;2024-03-07T07:01:54;101731.50;;;1.19;83.75
65997;BME280;52765;52.258;21.052;2024-03-07T07:05:58;101736.63;;;1.24;84.90
65997;BME280;52765;52.258;21.052;2024-03-07T07:09:59;101728.25;;;1.33;82.48
65997;BME280;52765;52.258;21.052;2024-03-07T07:14:01;101739.59;;;1.38;82.25
65997;BME280;52765;52.258;21.052;2024-03-07T07:18:03;101732.84;;;1.52;80.60
65997;BME280;52765;52.258;21.052;2024-03-07T07:22:04;101733.44;;;1.58;80.52
65997;BME280;52765;52.258;21.052;2024-03-07T07:26:06;101732.03;;;1.70;80.39
65997;BME280;52765;52.258;21.052;2024-03-07T07:30:10;101741.81;;;1.90;76.59
65997;BME280;52765;52.258;21.052;2024-03-07T07:34:11;101732.09;;;1.89;75.54
65997;BME280;52765;52.258;21.052;2024-03-07T07:38:13;101729.72;;;2.03;74.46
65997;BME280;52765;52.258;21.052;2024-03-07T07:42:15;101725.25;;;2.04;73.95
65997;BME280;52765;52.258;21.052;2024-03-07T07:46:16;101734.84;;;2.27;71.01
65997;BME280;52765;52.258;21.052;2024-03-07T07:50:18;101735.38;;;2.35;69.11
65997;BME280;52765;52.258;21.052;2024-03-07T07:54:19;101736.75;;;2.44;66.29
65997;BME280;52765;52.258;21.052;2024-03-07T07:58:21;101733.38;;;2.59;66.94
65997;BME280;52765;52.258;21.052;2024-03-07T08:02:21;101746.75;;;2.77;64.50
65997;BME280;52765;52.258;21.052;2024-03-07T08:06:22;101735.72;;;2.85;64.08
65997;BME280;52765;52.258;21.052;2024-03-07T08:10:26;101735.22;;;2.95;62.83
65997;BME280;52765;52.258;21.052;2024-03-07T08:14:28;101730.75;;;3.15;61.44
65997;BME280;52765;52.258;21.052;2024-03-07T08:18:29;101722.22;;;3.26;60.25
65997;BME280;52765;52.258;21.052;2024-03-07T08:22:30;101734.44;;;3.30;59.31
65997;BME280;52765;52.258;21.052;2024-03-07T08:26:30;101726.94;;;3.38;58.87
65997;BME280;52765;52.258;21.052;2024-03-07T08:30:32;101730.88;;;3.48;58.77
65997;BME280;52765;52.258;21.052;2024-03-07T08:34:33;101741.44;;;3.67;57.95
65997;BME280;52765;52.258;21.052;2024-03-07T08:38:33;101722.84;;;3.66;56.89
65997;BME280;52765;52.258;21.052;2024-03-07T08:42:34;101725.16;;;3.74;57.51
65997;BME280;52765;52.258;21.052;2024-03-07T08:46:34;101729.53;;;3.92;57.10
65997;BME280;52765;52.258;21.052;2024-03-07T08:50:35;101730.53;;;4.07;56.48
65997;BME280;52765;52.258;21.052;2024-03-07T08:54:37;101722.13;;;4.15;56.71
65997;BME280;52765;52.258;21.052;2024-03-07T08:58:37;101718.78;;;4.27;54.57
65997;BME280;52765;52.258;21.052;2024-03-07T09:02:38;101723.28;;;4.26;54.16
65997;BME280;52765;52.258;21.052;2024-03-07T09:06:39;101717.41;;;4.36;52.50
65997;BME280;52765;52.258;21.052;2024-03-07T09:10:39;101713.13;;;4.33;51.33
65997;BME280;52765;52.258;21.052;2024-03-07T09:14:42;101719.84;;;4.40;51.28
65997;BME280;52765;52.258;21.052;2024-03-07T09:18:43;101707.22;;;4.60;50.51
65997;BME280;52765;52.258;21.052;2024-03-07T09:22:45;101713.31;;;4.78;50.37
65997;BME280;52765;52.258;21.052;2024-03-07T09:26:51;101722.19;;;4.94;49.78
65997;BME280;52765;52.258;21.052;2024-03-07T09:30:52;101703.88;;;4.88;48.74
65997;BME280;52765;52.258;21.052;2024-03-07T09:34:52;101705.66;;;4.88;49.00
65997;BME280;52765;52.258;21.052;2024-03-07T09:38:53;101693.19;;;4.88;49.44
65997;BME280;52765;52.258;21.052;2024-03-07T09:42:54;101706.00;;;5.13;49.50
65997;BME280;52765;52.258;21.052;2024-03-07T09:46:56;101698.06;;;5.12;49.34
65997;BME280;52765;52.258;21.052;2024-03-07T09:51:02;101697.06;;;5.29;48.51
65997;BME280;52765;52.258;21.052;2024-03-07T09:55:04;101705.69;;;5.34;48.66
65997;BME280;52765;52.258;21.052;2024-03-07T09:59:11;101715.56;;;5.48;48.50
65997;BME280;52765;52.258;21.052;2024-03-07T10:03:15;101722.78;;;5.62;47.80
65997;BME280;52765;52.258;21.052;2024-03-07T10:07:18;101708.16;;;5.67;47.30
65997;BME280;52765;52.258;21.052;2024-03-07T10:11:18;101696.19;;;5.74;47.00
65997;BME280;52765;52.258;21.052;2024-03-07T10:15:27;101705.06;;;5.89;47.00
65997;BME280;52765;52.258;21.052;2024-03-07T10:19:28;101700.84;;;5.85;46.67
65997;BME280;52765;52.258;21.052;2024-03-07T10:23:29;101701.09;;;5.97;46.67
65997;BME280;52765;52.258;21.052;2024-03-07T10:27:29;101694.13;;;6.08;46.18
65997;BME280;52765;52.258;21.052;2024-03-07T10:31:31;101688.59;;;6.11;46.61
65997;BME280;52765;52.258;21.052;2024-03-07T10:35:32;101686.31;;;6.20;46.29
65997;BME280;52765;52.258;21.052;2024-03-07T10:39:32;101694.03;;;6.39;46.31
65997;BME280;52765;52.258;21.052;2024-03-07T10:43:36;101698.13;;;6.59;45.45
65997;BME280;52765;52.258;21.052;2024-03-07T10:47:38;101691.25;;;6.55;45.58
65997;BME280;52765;52.258;21.052;2024-03-07T10:51:46;101689.75;;;6.36;44.62
65997;BME280;52765;52.258;21.052;2024-03-07T11:00:11;101690.53;;;6.65;45.09
65997;BME280;52765;52.258;21.052;2024-03-07T11:04:31;101681.47;;;6.68;44.70
65997;BME280;52765;52.258;21.052;2024-03-07T11:08:34;101671.06;;;6.91;43.90
65997;BME280;52765;52.258;21.052;2024-03-07T11:12:39;101674.50;;;6.93;45.04
65997;BME280;52765;52.258;21.052;2024-03-07T11:16:41;101679.00;;;7.19;44.72
65997;BME280;52765;52.258;21.052;2024-03-07T11:20:42;101674.84;;;7.41;43.68
65997;BME280;52765;52.258;21.052;2024-03-07T11:25:04;101665.22;;;7.38;43.53
65997;BME280;52765;52.258;21.052;2024-03-07T11:34:12;101658.34;;;7.47;43.05
65997;BME280;52765;52.258;21.052;2024-03-07T11:38:14;101657.19;;;7.51;43.51
65997;BME280;52765;52.258;21.052;2024-03-07T11:42:29;101661.81;;;7.62;42.24
65997;BME280;52765;52.258;21.052;2024-03-07T11:46:35;101653.66;;;7.51;42.91
65997;BME280;52765;52.258;21.052;2024-03-07T11:50:41;101651.84;;;7.77;42.99
65997;BME280;52765;52.258;21.052;2024-03-07T11:54:50;101648.75;;;7.83;42.78
65997;BME280;52765;52.258;21.052;2024-03-07T11:58:54;101652.28;;;7.84;41.82
65997;BME280;52765;52.258;21.052;2024-03-07T12:02:58;101650.91;;;7.78;42.59
65997;BME280;52765;52.258;21.052;2024-03-07T12:06:59;101639.38;;;7.76;42.09
65997;BME280;52765;52.258;21.052;2024-03-07T12:11:00;101647.34;;;7.65;43.13
65997;BME280;52765;52.258;21.052;2024-03-07T12:15:03;101640.59;;;7.85;42.36
65997;BME280;52765;52.258;21.052;2024-03-07T12:19:10;101639.28;;;8.03;42.13
65997;BME280;52765;52.258;21.052;2024-03-07T12:23:10;101633.03;;;8.28;41.53
65997;BME280;52765;52.258;21.052;2024-03-07T12:27:12;101629.19;;;8.69;41.05
65997;BME280;52765;52.258;21.052;2024-03-07T12:31:16;101623.41;;;8.87;40.45
65997;BME280;52765;52.258;21.052;2024-03-07T12:35:17;101620.94;;;8.84;40.69
65997;BME280;52765;52.258;21.052;2024-03-07T12:39:25;101629.41;;;9.15;39.72
65997;BME280;52765;52.258;21.052;2024-03-07T12:43:26;101620.59;;;9.13;40.03
65997;BME280;52765;52.258;21.052;2024-03-07T12:47:26;101616.81;;;9.15;39.53
65997;BME280;52765;52.258;21.052;2024-03-07T12:51:27;101612.81;;;9.32;39.45
65997;BME280;52765;52.258;21.052;2024-03-07T12:55:27;101614.56;;;9.56;39.60
65997;BME280;52765;52.258;21.052;2024-03-07T12:59:27;101615.94;;;9.50;39.06
65997;BME280;52765;52.258;21.052;2024-03-07T13:03:28;101615.78;;;9.40;39.08
65997;BME280;52765;52.258;21.052;2024-03-07T13:07:30;101614.22;;;9.60;38.76
65997;BME280;52765;52.258;21.052;2024-03-07T13:11:31;101595.28;;;9.62;38.65
65997;BME280;52765;52.258;21.052;2024-03-07T13:15:32;101603.75;;;10.03;38.58
65997;BME280;52765;52.258;21.052;2024-03-07T13:19:33;101600.91;;;10.15;37.97
65997;BME280;52765;52.258;21.052;2024-03-07T13:23:33;101598.97;;;10.40;37.57
65997;BME280;52765;52.258;21.052;2024-03-07T13:27:34;101595.28;;;10.30;37.47
65997;BME280;52765;52.258;21.052;2024-03-07T13:31:35;101598.50;;;10.35;37.85
65997;BME280;52765;52.258;21.052;2024-03-07T13:35:38;101585.13;;;10.45;37.43
65997;BME280;52765;52.258;21.052;2024-03-07T13:39:39;101595.78;;;10.24;37.69
65997;BME280;52765;52.258;21.052;2024-03-07T13:43:39;101580.38;;;10.03;37.62
65997;BME280;52765;52.258;21.052;2024-03-07T13:47:40;101597.84;;;9.97;36.41
65997;BME280;52765;52.258;21.052;2024-03-07T13:51:43;101585.53;;;10.06;37.06
65997;BME280;52765;52.258;21.052;2024-03-07T14:00:30;101588.84;;;10.97;35.96
65997;BME280;52765;52.258;21.052;2024-03-07T14:30:51;101570.09;;;11.80;34.52
65997;BME280;52765;52.258;21.052;2024-03-07T14:35:22;101573.88;;;11.98;33.67
65997;BME280;52765;52.258;21.052;2024-03-07T14:39:24;101569.81;;;11.83;34.31
65997;BME280;52765;52.258;21.052;2024-03-07T14:43:27;101571.72;;;11.92;34.58
65997;BME280;52765;52.258;21.052;2024-03-07T14:47:27;101573.38;;;11.83;34.20
65997;BME280;52765;52.258;21.052;2024-03-07T14:51:29;101567.91;;;11.74;35.06
65997;BME280;52765;52.258;21.052;2024-03-07T14:55:35;101562.66;;;11.72;35.32
65997;BME280;52765;52.258;21.052;2024-03-07T14:59:38;101560.59;;;11.34;35.98
65997;BME280;52765;52.258;21.052;2024-03-07T15:03:41;101562.97;;;11.06;36.31
65997;BME280;52765;52.258;21.052;2024-03-07T15:07:48;101554.06;;;10.73;36.58
65997;BME280;52765;52.258;21.052;2024-03-07T15:11:50;101559.63;;;10.49;37.43
65997;BME280;52765;52.258;21.052;2024-03-07T15:15:50;101563.81;;;10.19;37.84
65997;BME280;52765;52.258;21.052;2024-03-07T15:19:50;101549.28;;;9.99;38.17
65997;BME280;52765;52.258;21.052;2024-03-07T15:23:51;101545.50;;;9.90;38.42
65997;BME280;52765;52.258;21.052;2024-03-07T15:27:55;101540.25;;;9.89;38.54
65997;BME280;52765;52.258;21.052;2024-03-07T15:31:56;101543.69;;;9.68;39.16
65997;BME280;52765;52.258;21.052;2024-03-07T15:35:57;101546.59;;;9.54;39.47
65997;BME280;52765;52.258;21.052;2024-03-07T15:39:57;101547.81;;;9.38;39.98
65997;BME280;52765;52.258;21.052;2024-03-07T15:43:58;101546.53;;;9.08;40.46
65997;BME280;52765;52.258;21.052;2024-03-07T15:47:59;101540.03;;;8.76;41.63
65997;BME280;52765;52.258;21.052;2024-03-07T15:52:05;101550.47;;;8.56;42.10
65997;BME280;52765;52.258;21.052;2024-03-07T15:56:06;101549.81;;;8.28;42.55
65997;BME280;52765;52.258;21.052;2024-03-07T16:00:07;101539.91;;;7.92;43.37
65997;BME280;52765;52.258;21.052;2024-03-07T16:04:18;101553.91;;;7.58;44.44
65997;BME280;52765;52.258;21.052;2024-03-07T16:08:18;101559.69;;;7.27;45.36
65997;BME280;52765;52.258;21.052;2024-03-07T16:12:19;101558.69;;;7.02;46.03
65997;BME280;52765;52.258;21.052;2024-03-07T16:16:20;101566.34;;;6.81;46.39
65997;BME280;52765;52.258;21.052;2024-03-07T16:20:31;101565.66;;;6.64;47.08
65997;BME280;52765;52.258;21.052;2024-03-07T16:24:32;101565.34;;;6.42;47.80
65997;BME280;52765;52.258;21.052;2024-03-07T16:28:38;101571.81;;;6.25;48.10
65997;BME280;52765;52.258;21.052;2024-03-07T16:32:39;101571.06;;;6.08;49.04
65997;BME280;52765;52.258;21.052;2024-03-07T16:36:39;101571.63;;;5.99;49.27
65997;BME280;52765;52.258;21.052;2024-03-07T16:40:40;101568.97;;;5.85;49.63
65997;BME280;52765;52.258;21.052;2024-03-07T16:44:43;101578.63;;;5.73;50.03
65997;BME280;52765;52.258;21.052;2024-03-07T16:48:43;101569.50;;;5.61;50.83
65997;BME280;52765;52.258;21.052;2024-03-07T16:52:44;101569.53;;;5.47;50.85
65997;BME280;52765;52.258;21.052;2024-03-07T16:56:44;101570.66;;;5.43;51.26
65997;BME280;52765;52.258;21.052;2024-03-07T17:00:46;101579.16;;;5.35;51.75
65997;BME280;52765;52.258;21.052;2024-03-07T17:04:47;101580.47;;;5.28;51.75
65997;BME280;52765;52.258;21.052;2024-03-07T17:08:47;101578.16;;;5.22;52.33
65997;BME280;52765;52.258;21.052;2024-03-07T17:12:49;101575.88;;;5.15;52.65
65997;BME280;52765;52.258;21.052;2024-03-07T17:16:50;101575.47;;;5.07;53.25
65997;BME280;52765;52.258;21.052;2024-03-07T17:20:50;101569.13;;;4.94;53.59
65997;BME280;52765;52.258;21.052;2024-03-07T17:24:51;101579.31;;;4.87;54.26
65997;BME280;52765;52.258;21.052;2024-03-07T17:28:53;101567.19;;;4.81;54.68
65997;BME280;52765;52.258;21.052;2024-03-07T17:32:54;101574.78;;;4.73;54.65
65997;BME280;52765;52.258;21.052;2024-03-07T17:36:56;101582.28;;;4.67;55.00
65997;BME280;52765;52.258;21.052;2024-03-07T17:40:58;101583.47;;;4.61;55.56
65997;BME280;52765;52.258;21.052;2024-03-07T17:44:59;101578.31;;;4.58;55.87
65997;BME280;52765;52.258;21.052;2024-03-07T17:48:59;101576.97;;;4.51;56.47
65997;BME280;52765;52.258;21.052;2024-03-07T17:53:02;101571.09;;;4.44;57.15
65997;BME280;52765;52.258;21.052;2024-03-07T17:57:07;101568.97;;;4.35;57.41
65997;BME280;52765;52.258;21.052;2024-03-07T18:01:07;101576.19;;;4.33;58.14
65997;BME280;52765;52.258;21.052;2024-03-07T18:05:08;101583.75;;;4.24;58.64
65997;BME280;52765;52.258;21.052;2024-03-07T18:09:09;101582.06;;;4.23;59.54
65997;BME280;52765;52.258;21.052;2024-03-07T18:13:27;101590.31;;;4.19;59.80
65997;BME280;52765;52.258;21.052;2024-03-07T18:17:28;101591.44;;;4.15;59.56
65997;BME280;52765;52.258;21.052;2024-03-07T18:21:29;101589.53;;;4.17;60.05
65997;BME280;52765;52.258;21.052;2024-03-07T18:25:32;101582.03;;;4.07;61.33
65997;BME280;52765;52.258;21.052;2024-03-07T18:29:37;101594.75;;;4.02;61.98
65997;BME280;52765;52.258;21.052;2024-03-07T18:33:38;101592.41;;;3.96;62.22
65997;BME280;52765;52.258;21.052;2024-03-07T18:37:43;101584.09;;;3.86;63.04
65997;BME280;52765;52.258;21.052;2024-03-07T18:41:51;101581.50;;;3.85;63.45
65997;BME280;52765;52.258;21.052;2024-03-07T18:45:52;101587.00;;;3.82;64.91
65997;BME280;52765;52.258;21.052;2024-03-07T18:49:52;101582.00;;;3.76;64.78
65997;BME280;52765;52.258;21.052;2024-03-07T18:53:53;101585.59;;;3.75;64.70
65997;BME280;52765;52.258;21.052;2024-03-07T18:58:02;101584.97;;;3.69;65.09
65997;BME280;52765;52.258;21.052;2024-03-07T19:02:03;101590.56;;;3.65;65.21
65997;BME280;52765;52.258;21.052;2024-03-07T19:06:10;101580.53;;;3.52;65.84
65997;BME280;52765;52.258;21.052;2024-03-07T19:10:11;101583.44;;;3.48;66.95
65997;BME280;52765;52.258;21.052;2024-03-07T19:14:17;101582.91;;;3.41;67.96
65997;BME280;52765;52.258;21.052;2024-03-07T19:18:18;101582.28;;;3.36;69.15
65997;BME280;52765;52.258;21.052;2024-03-07T19:22:19;101573.06;;;3.26;69.01
65997;BME280;52765;52.258;21.052;2024-03-07T19:26:19;101588.88;;;3.29;69.47
65997;BME280;52765;52.258;21.052;2024-03-07T19:30:20;101586.38;;;3.26;69.54
65997;BME280;52765;52.258;21.052;2024-03-07T19:34:22;101585.84;;;3.19;69.72
65997;BME280;52765;52.258;21.052;2024-03-07T19:38:22;101580.81;;;3.13;69.79
65997;BME280;52765;52.258;21.052;2024-03-07T19:42:30;101588.19;;;3.08;69.83
65997;BME280;52765;52.258;21.052;2024-03-07T19:46:30;101578.72;;;3.02;69.81
65997;BME280;52765;52.258;21.052;2024-03-07T19:50:34;101585.13;;;2.98;70.10
65997;BME280;52765;52.258;21.052;2024-03-07T19:54:37;101585.03;;;3.00;70.42
65997;BME280;52765;52.258;21.052;2024-03-07T19:58:38;101580.59;;;3.00;70.51
65997;BME280;52765;52.258;21.052;2024-03-07T20:02:39;101584.50;;;2.93;71.19
65997;BME280;52765;52.258;21.052;2024-03-07T20:06:39;101579.25;;;2.91;71.68
65997;BME280;52765;52.258;21.052;2024-03-07T20:10:40;101584.00;;;2.85;72.12
65997;BME280;52765;52.258;21.052;2024-03-07T20:14:42;101582.38;;;2.82;71.84
65997;BME280;52765;52.258;21.052;2024-03-07T20:18:46;101576.28;;;2.80;72.44
65997;BME280;52765;52.258;21.052;2024-03-07T20:22:47;101582.75;;;2.74;72.67
65997;BME280;52765;52.258;21.052;2024-03-07T20:26:48;101580.50;;;2.67;73.77
65997;BME280;52765;52.258;21.052;2024-03-07T20:30:50;101572.72;;;2.62;74.73
65997;BME280;52765;52.258;21.052;2024-03-07T20:34:52;101586.03;;;2.62;74.41
65997;BME280;52765;52.258;21.052;2024-03-07T20:38:52;101581.16;;;2.53;75.07
65997;BME280;52765;52.258;21.052;2024-03-07T20:42:53;101585.69;;;2.51;75.04
65997;BME280;52765;52.258;21.052;2024-03-07T20:46:54;101583.97;;;2.50;75.14
65997;BME280;52765;52.258;21.052;2024-03-07T20:50:55;101579.59;;;2.49;75.76
65997;BME280;52765;52.258;21.052;2024-03-07T20:54:56;101569.09;;;2.46;76.52
65997;BME280;52765;52.258;21.052;2024-03-07T20:58:58;101578.97;;;2.44;76.89
65997;BME280;52765;52.258;21.052;2024-03-07T21:02:59;101573.84;;;2.39;77.28
65997;BME280;52765;52.258;21.052;2024-03-07T21:06:59;101575.59;;;2.40;77.19
65997;BME280;52765;52.258;21.052;2024-03-07T21:11:00;101573.94;;;2.37;76.61
65997;BME280;52765;52.258;21.052;2024-03-07T21:15:02;101575.88;;;2.34;76.84
65997;BME280;52765;52.258;21.052;2024-03-07T21:19:06;101568.25;;;2.26;78.06
65997;BME280;52765;52.258;21.052;2024-03-07T21:23:08;101573.72;;;2.23;78.75
65997;BME280;52765;52.258;21.052;2024-03-07T21:27:08;101572.09;;;2.20;79.66
65997;BME280;52765;52.258;21.052;2024-03-07T21:31:13;101566.19;;;2.14;80.35
65997;BME280;52765;52.258;21.052;2024-03-07T21:35:16;101567.44;;;2.07;81.31
65997;BME280;52765;52.258;21.052;2024-03-07T21:39:16;101577.31;;;2.03;82.08
65997;BME280;52765;52.258;21.052;2024-03-07T21:43:17;101573.94;;;1.99;82.57